sensor_id;sensor_type;location;lat;lon;timestamp;temperature;humidity
423;DHT22;198;48.752;9.180;2023-12-14T00:00:24;7.80;99.90
423;DHT22;198;48.752;9.180;2023-12-14T00:02:50;7.80;99.90
423;DHT22;198;48.752;9.180;2023-12-14T00:05:15;7.80;99.90
423;DHT22;198;48.752;9.180;2023-12-14T00:07:41;7.80;99.90
423;DHT22;198;48.752;9.180;2023-12-14T00:10:07;7.80;99.90
423;DHT22;198;48.752;9.180;2023-12-14T00:12:32;7.80;99.90
423;DHT22;198;48.752;9.180;2023-12-14T00:14:58;7.80;99.90
423;DHT22;198;48.752;9.180;2023-12-14T00:17:24;7.80;99.90
423;DHT22;198;48.752;9.180;2023-12-14T00:19:49;7.80;99.90
423;DHT22;198;48.752;9.180;2023-12-14T00:22:15;7.70;99.90
423;DHT22;198;48.752;9.180;2023-12-14T00:24:40;7.60;99.90
423;DHT22;198;48.752;9.180;2023-12-14T00:27:06;7.60;99.90
423;DHT22;198;48.752;9.180;2023-12-14T00:29:31;7.60;99.90
423;DHT22;198;48.752;9.180;2023-12-14T00:31:57;7.60;99.90
423;DHT22;198;48.752;9.180;2023-12-14T00:34:22;7.60;99.90
423;DHT22;198;48.752;9.180;2023-12-14T00:36:48;7.60;99.90
423;DHT22;198;48.752;9.180;2023-12-14T00:39:13;7.70;99.90
423;DHT22;198;48.752;9.180;2023-12-14T00:41:39;7.70;99.90
423;DHT22;198;48.752;9.180;2023-12-14T00:44:04;7.60;99.90
423;DHT22;198;48.752;9.180;2023-12-14T00:46:30;7.50;99.90
423;DHT22;198;48.752;9.180;2023-12-14T00:48:55;7.50;99.90
423;DHT22;198;48.752;9.180;2023-12-14T00:51:21;7.50;99.90
423;DHT22;198;48.752;9.180;2023-12-14T00:53:47;7.50;99.90
423;DHT22;198;48.752;9.180;2023-12-14T00:56:12;7.60;99.90
423;DHT22;198;48.752;9.180;2023-12-14T00:58:38;7.60;99.90
423;DHT22;198;48.752;9.180;2023-12-14T01:01:03;7.50;99.90
423;DHT22;198;48.752;9.180;2023-12-14T01:03:29;7.50;99.90
423;DHT22;198;48.752;9.180;2023-12-14T01:05:54;7.50;99.90
423;DHT22;198;48.752;9.180;2023-12-14T01:08:20;7.50;99.90
423;DHT22;198;48.752;9.180;2023-12-14T01:10:45;7.50;99.90
423;DHT22;198;48.752;9.180;2023-12-14T01:13:11;7.50;99.90
423;DHT22;198;48.752;9.180;2023-12-14T01:15:36;7.50;99.90
423;DHT22;198;48.752;9.180;2023-12-14T01:18:02;7.50;99.90
423;DHT22;198;48.752;9.180;2023-12-14T01:20:27;7.40;99.90
423;DHT22;198;48.752;9.180;2023-12-14T01:22:53;7.40;99.90
423;DHT22;198;48.752;9.180;2023-12-14T01:25:18;7.40;99.90
423;DHT22;198;48.752;9.180;2023-12-14T01:27:44;7.40;99.90
423;DHT22;198;48.752;9.180;2023-12-14T01:30:10;7.40;99.90
423;DHT22;198;48.752;9.180;2023-12-14T01:32:35;7.40;99.90
423;DHT22;198;48.752;9.180;2023-12-14T01:35:01;7.40;99.90
423;DHT22;198;48.752;9.180;2023-12-14T01:37:26;7.40;99.90
423;DHT22;198;48.752;9.180;2023-12-14T01:39:52;7.40;99.90
423;DHT22;198;48.752;9.180;2023-12-14T01:42:17;7.50;99.90
423;DHT22;198;48.752;9.180;2023-12-14T01:44:43;7.40;99.90
423;DHT22;198;48.752;9.180;2023-12-14T01:47:08;7.50;99.90
423;DHT22;198;48.752;9.180;2023-12-14T01:49:34;7.50;99.90
423;DHT22;198;48.752;9.180;2023-12-14T01:51:59;7.50;99.90
423;DHT22;198;48.752;9.180;2023-12-14T01:54:25;7.60;99.90
423;DHT22;198;48.752;9.180;2023-12-14T01:56:50;7.60;99.90
423;DHT22;198;48.752;9.180;2023-12-14T01:59:16;7.60;99.90
423;DHT22;198;48.752;9.180;2023-12-14T02:01:43;7.60;99.90
423;DHT22;198;48.752;9.180;2023-12-14T02:04:10;7.60;99.90
423;DHT22;198;48.752;9.180;2023-12-14T02:06:36;7.70;99.90
423;DHT22;198;48.752;9.180;2023-12-14T02:09:02;7.60;99.90
423;DHT22;198;48.752;9.180;2023-12-14T02:11:28;7.50;99.90
423;DHT22;198;48.752;9.180;2023-12-14T02:13:53;7.40;99.90
423;DHT22;198;48.752;9.180;2023-12-14T02:16:19;7.40;99.90
423;DHT22;198;48.752;9.180;2023-12-14T02:18:45;7.30;99.90
423;DHT22;198;48.752;9.180;2023-12-14T02:21:10;7.30;99.90
423;DHT22;198;48.752;9.180;2023-12-14T02:23:45;7.30;99.90
423;DHT22;198;48.752;9.180;2023-12-14T02:26:12;7.30;99.90
423;DHT22;198;48.752;9.180;2023-12-14T02:28:38;7.30;99.90
423;DHT22;198;48.752;9.180;2023-12-14T02:31:03;7.30;99.90
423;DHT22;198;48.752;9.180;2023-12-14T02:33:29;7.30;99.90
423;DHT22;198;48.752;9.180;2023-12-14T02:35:54;7.30;99.90
423;DHT22;198;48.752;9.180;2023-12-14T02:38:20;7.30;99.90
423;DHT22;198;48.752;9.180;2023-12-14T02:40:46;7.30;99.90
423;DHT22;198;48.752;9.180;2023-12-14T02:43:12;7.30;99.90
423;DHT22;198;48.752;9.180;2023-12-14T02:45:37;7.30;99.90
423;DHT22;198;48.752;9.180;2023-12-14T02:48:03;7.30;99.90
423;DHT22;198;48.752;9.180;2023-12-14T02:50:28;7.20;99.90
423;DHT22;198;48.752;9.180;2023-12-14T02:52:54;7.30;99.90
423;DHT22;198;48.752;9.180;2023-12-14T02:55:19;7.20;99.90
423;DHT22;198;48.752;9.180;2023-12-14T02:57:45;7.30;99.90
423;DHT22;198;48.752;9.180;2023-12-14T03:00:11;7.30;99.90
423;DHT22;198;48.752;9.180;2023-12-14T03:02:37;7.30;99.90
423;DHT22;198;48.752;9.180;2023-12-14T03:05:03;7.30;99.90
423;DHT22;198;48.752;9.180;2023-12-14T03:07:28;7.30;99.90
423;DHT22;198;48.752;9.180;2023-12-14T03:09:54;7.30;99.90
423;DHT22;198;48.752;9.180;2023-12-14T03:12:19;7.30;99.90
423;DHT22;198;48.752;9.180;2023-12-14T03:14:45;7.40;99.90
423;DHT22;198;48.752;9.180;2023-12-14T03:17:10;7.40;99.90
423;DHT22;198;48.752;9.180;2023-12-14T03:19:40;7.50;99.90
423;DHT22;198;48.752;9.180;2023-12-14T03:22:06;7.50;99.90
423;DHT22;198;48.752;9.180;2023-12-14T03:24:32;7.50;99.90
423;DHT22;198;48.752;9.180;2023-12-14T03:26:58;7.60;99.90
423;DHT22;198;48.752;9.180;2023-12-14T03:29:23;7.60;99.90
423;DHT22;198;48.752;9.180;2023-12-14T03:31:49;7.60;99.90
423;DHT22;198;48.752;9.180;2023-12-14T03:34:14;7.60;99.90
423;DHT22;198;48.752;9.180;2023-12-14T03:36:40;7.60;99.90
423;DHT22;198;48.752;9.180;2023-12-14T03:39:05;7.60;99.90
423;DHT22;198;48.752;9.180;2023-12-14T03:41:31;7.70;99.90
423;DHT22;198;48.752;9.180;2023-12-14T03:43:57;7.70;99.90
423;DHT22;198;48.752;9.180;2023-12-14T03:46:23;7.70;99.90
423;DHT22;198;48.752;9.180;2023-12-14T03:48:49;7.70;99.90
423;DHT22;198;48.752;9.180;2023-12-14T03:51:18;7.70;99.90
423;DHT22;198;48.752;9.180;2023-12-14T03:53:44;7.70;99.90
423;DHT22;198;48.752;9.180;2023-12-14T03:56:10;7.70;99.90
423;DHT22;198;48.752;9.180;2023-12-14T03:58:35;7.70;99.90
423;DHT22;198;48.752;9.180;2023-12-14T04:01:01;7.70;99.90
423;DHT22;198;48.752;9.180;2023-12-14T04:03:27;7.70;99.90
423;DHT22;198;48.752;9.180;2023-12-14T04:05:52;7.80;99.90
423;DHT22;198;48.752;9.180;2023-12-14T04:08:18;7.80;99.90
423;DHT22;198;48.752;9.180;2023-12-14T04:10:43;7.70;99.90
423;DHT22;198;48.752;9.180;2023-12-14T04:13:09;7.80;99.90
423;DHT22;198;48.752;9.180;2023-12-14T04:15:34;7.70;99.90
423;DHT22;198;48.752;9.180;2023-12-14T04:18:00;7.80;99.90
423;DHT22;198;48.752;9.180;2023-12-14T04:20:25;7.80;99.90
423;DHT22;198;48.752;9.180;2023-12-14T04:22:51;7.80;99.90
423;DHT22;198;48.752;9.180;2023-12-14T04:25:16;7.90;99.90
423;DHT22;198;48.752;9.180;2023-12-14T04:27:42;7.90;99.90
423;DHT22;198;48.752;9.180;2023-12-14T04:30:07;7.90;99.90
423;DHT22;198;48.752;9.180;2023-12-14T04:32:36;7.90;99.90
423;DHT22;198;48.752;9.180;2023-12-14T04:35:02;7.90;99.90
423;DHT22;198;48.752;9.180;2023-12-14T04:37:28;8.00;99.90
423;DHT22;198;48.752;9.180;2023-12-14T04:39:54;8.00;99.90
423;DHT22;198;48.752;9.180;2023-12-14T04:42:19;8.10;99.90
423;DHT22;198;48.752;9.180;2023-12-14T04:44:45;8.10;99.90
423;DHT22;198;48.752;9.180;2023-12-14T04:47:10;8.10;99.90
423;DHT22;198;48.752;9.180;2023-12-14T04:49:36;8.10;99.90
423;DHT22;198;48.752;9.180;2023-12-14T04:52:01;8.10;99.90
423;DHT22;198;48.752;9.180;2023-12-14T04:54:26;8.10;99.90
423;DHT22;198;48.752;9.180;2023-12-14T04:56:52;8.00;99.90
423;DHT22;198;48.752;9.180;2023-12-14T04:59:17;8.10;99.90
423;DHT22;198;48.752;9.180;2023-12-14T05:01:43;8.10;99.90
423;DHT22;198;48.752;9.180;2023-12-14T05:06:34;8.00;99.90
423;DHT22;198;48.752;9.180;2023-12-14T05:09:00;8.00;99.90
423;DHT22;198;48.752;9.180;2023-12-14T05:11:29;8.00;99.90
423;DHT22;198;48.752;9.180;2023-12-14T05:13:54;8.00;99.90
423;DHT22;198;48.752;9.180;2023-12-14T05:16:20;8.00;99.90
423;DHT22;198;48.752;9.180;2023-12-14T05:18:45;7.90;99.90
423;DHT22;198;48.752;9.180;2023-12-14T05:21:17;7.90;99.90
423;DHT22;198;48.752;9.180;2023-12-14T05:23:43;7.90;99.90
423;DHT22;198;48.752;9.180;2023-12-14T05:26:08;7.80;99.90
423;DHT22;198;48.752;9.180;2023-12-14T05:28:34;7.90;99.90
423;DHT22;198;48.752;9.180;2023-12-14T05:31:00;7.90;99.90
423;DHT22;198;48.752;9.180;2023-12-14T05:33:26;7.90;99.90
423;DHT22;198;48.752;9.180;2023-12-14T05:35:52;7.90;99.90
423;DHT22;198;48.752;9.180;2023-12-14T05:38:17;8.00;99.90
423;DHT22;198;48.752;9.180;2023-12-14T05:40:43;8.00;99.90
423;DHT22;198;48.752;9.180;2023-12-14T05:43:09;8.10;99.90
423;DHT22;198;48.752;9.180;2023-12-14T05:45:35;8.10;99.90
423;DHT22;198;48.752;9.180;2023-12-14T05:48:01;8.10;99.90
423;DHT22;198;48.752;9.180;2023-12-14T05:50:27;8.00;99.90
423;DHT22;198;48.752;9.180;2023-12-14T05:52:53;8.10;99.90
423;DHT22;198;48.752;9.180;2023-12-14T05:55:19;8.10;99.90
423;DHT22;198;48.752;9.180;2023-12-14T05:57:47;8.10;99.90
423;DHT22;198;48.752;9.180;2023-12-14T06:00:13;8.10;99.90
423;DHT22;198;48.752;9.180;2023-12-14T06:02:39;8.10;99.90
423;DHT22;198;48.752;9.180;2023-12-14T06:05:05;8.10;99.90
423;DHT22;198;48.752;9.180;2023-12-14T06:07:31;8.10;99.90
423;DHT22;198;48.752;9.180;2023-12-14T06:09:57;8.10;99.90
423;DHT22;198;48.752;9.180;2023-12-14T06:12:22;8.20;99.90
423;DHT22;198;48.752;9.180;2023-12-14T06:14:48;8.20;99.90
423;DHT22;198;48.752;9.180;2023-12-14T06:17:13;8.10;99.90
423;DHT22;198;48.752;9.180;2023-12-14T06:19:39;8.10;99.90
423;DHT22;198;48.752;9.180;2023-12-14T06:22:04;8.10;99.90
423;DHT22;198;48.752;9.180;2023-12-14T06:24:30;8.10;99.90
423;DHT22;198;48.752;9.180;2023-12-14T06:26:55;8.10;99.90
423;DHT22;198;48.752;9.180;2023-12-14T06:29:21;8.10;99.90
423;DHT22;198;48.752;9.180;2023-12-14T06:31:46;8.10;99.90
423;DHT22;198;48.752;9.180;2023-12-14T06:34:12;8.10;99.90
423;DHT22;198;48.752;9.180;2023-12-14T06:36:42;8.10;99.90
423;DHT22;198;48.752;9.180;2023-12-14T06:39:08;8.10;99.90
423;DHT22;198;48.752;9.180;2023-12-14T06:41:33;8.10;99.90
423;DHT22;198;48.752;9.180;2023-12-14T06:43:59;8.10;99.90
423;DHT22;198;48.752;9.180;2023-12-14T06:46:24;8.10;99.90
423;DHT22;198;48.752;9.180;2023-12-14T06:48:50;8.10;99.90
423;DHT22;198;48.752;9.180;2023-12-14T06:51:16;8.20;99.90
423;DHT22;198;48.752;9.180;2023-12-14T06:53:42;8.20;99.90
423;DHT22;198;48.752;9.180;2023-12-14T06:56:09;8.20;99.90
423;DHT22;198;48.752;9.180;2023-12-14T06:58:38;8.20;99.90
423;DHT22;198;48.752;9.180;2023-12-14T07:01:04;8.20;99.90
423;DHT22;198;48.752;9.180;2023-12-14T07:03:30;8.20;99.90
423;DHT22;198;48.752;9.180;2023-12-14T07:05:56;8.20;99.90
423;DHT22;198;48.752;9.180;2023-12-14T07:08:21;8.10;99.90
423;DHT22;198;48.752;9.180;2023-12-14T07:10:46;8.10;99.90
423;DHT22;198;48.752;9.180;2023-12-14T07:13:12;8.10;99.90
423;DHT22;198;48.752;9.180;2023-12-14T07:15:37;8.10;99.90
423;DHT22;198;48.752;9.180;2023-12-14T07:18:03;8.20;99.90
423;DHT22;198;48.752;9.180;2023-12-14T07:20:29;8.10;99.90
423;DHT22;198;48.752;9.180;2023-12-14T07:22:54;8.10;99.90
423;DHT22;198;48.752;9.180;2023-12-14T07:25:20;8.20;99.90
423;DHT22;198;48.752;9.180;2023-12-14T07:27:45;8.20;99.90
423;DHT22;198;48.752;9.180;2023-12-14T07:30:12;8.20;99.90
423;DHT22;198;48.752;9.180;2023-12-14T07:32:38;8.20;99.90
423;DHT22;198;48.752;9.180;2023-12-14T07:35:04;8.20;99.90
423;DHT22;198;48.752;9.180;2023-12-14T07:37:29;8.30;99.90
423;DHT22;198;48.752;9.180;2023-12-14T07:39:55;8.20;99.90
423;DHT22;198;48.752;9.180;2023-12-14T07:42:20;8.30;99.90
423;DHT22;198;48.752;9.180;2023-12-14T07:44:46;8.20;99.90
423;DHT22;198;48.752;9.180;2023-12-14T07:47:12;8.20;99.90
423;DHT22;198;48.752;9.180;2023-12-14T07:49:37;8.20;99.90
423;DHT22;198;48.752;9.180;2023-12-14T07:52:03;8.10;99.90
423;DHT22;198;48.752;9.180;2023-12-14T07:54:28;8.10;99.90
423;DHT22;198;48.752;9.180;2023-12-14T07:56:54;8.10;99.90
423;DHT22;198;48.752;9.180;2023-12-14T07:59:20;8.10;99.90
423;DHT22;198;48.752;9.180;2023-12-14T08:01:46;8.20;99.90
423;DHT22;198;48.752;9.180;2023-12-14T08:04:11;8.20;99.90
423;DHT22;198;48.752;9.180;2023-12-14T08:06:37;8.30;99.90
423;DHT22;198;48.752;9.180;2023-12-14T08:09:04;8.40;99.90
423;DHT22;198;48.752;9.180;2023-12-14T08:11:31;8.50;99.90
423;DHT22;198;48.752;9.180;2023-12-14T08:13:57;8.70;99.90
423;DHT22;198;48.752;9.180;2023-12-14T08:16:22;8.70;99.90
423;DHT22;198;48.752;9.180;2023-12-14T08:18:47;8.80;99.90
423;DHT22;198;48.752;9.180;2023-12-14T08:21:14;8.80;99.90
423;DHT22;198;48.752;9.180;2023-12-14T08:23:40;8.90;99.90
423;DHT22;198;48.752;9.180;2023-12-14T08:26:06;8.90;99.90
423;DHT22;198;48.752;9.180;2023-12-14T08:28:31;9.10;99.90
423;DHT22;198;48.752;9.180;2023-12-14T08:30:57;9.20;99.90
423;DHT22;198;48.752;9.180;2023-12-14T08:33:24;9.20;99.90
423;DHT22;198;48.752;9.180;2023-12-14T08:35:49;9.30;99.90
423;DHT22;198;48.752;9.180;2023-12-14T08:38:15;9.30;99.90
423;DHT22;198;48.752;9.180;2023-12-14T08:40:42;9.30;99.90
423;DHT22;198;48.752;9.180;2023-12-14T08:43:07;9.30;99.90
423;DHT22;198;48.752;9.180;2023-12-14T08:45:33;9.30;99.90
423;DHT22;198;48.752;9.180;2023-12-14T08:47:58;9.30;99.90
423;DHT22;198;48.752;9.180;2023-12-14T08:50:24;9.20;99.90
423;DHT22;198;48.752;9.180;2023-12-14T08:52:51;9.20;99.90
423;DHT22;198;48.752;9.180;2023-12-14T08:55:18;9.30;99.90
423;DHT22;198;48.752;9.180;2023-12-14T08:57:43;9.50;99.90
423;DHT22;198;48.752;9.180;2023-12-14T09:00:15;9.60;99.90
423;DHT22;198;48.752;9.180;2023-12-14T09:02:43;9.80;99.90
423;DHT22;198;48.752;9.180;2023-12-14T09:05:09;9.80;99.90
423;DHT22;198;48.752;9.180;2023-12-14T09:07:34;9.80;99.90
423;DHT22;198;48.752;9.180;2023-12-14T09:10:00;9.80;99.90
423;DHT22;198;48.752;9.180;2023-12-14T09:12:25;9.90;99.90
423;DHT22;198;48.752;9.180;2023-12-14T09:14:51;9.90;99.90
423;DHT22;198;48.752;9.180;2023-12-14T09:17:16;9.90;99.90
423;DHT22;198;48.752;9.180;2023-12-14T09:19:42;10.00;99.90
423;DHT22;198;48.752;9.180;2023-12-14T09:22:07;9.90;99.90
423;DHT22;198;48.752;9.180;2023-12-14T09:24:33;9.80;99.90
423;DHT22;198;48.752;9.180;2023-12-14T09:26:58;9.80;99.90
423;DHT22;198;48.752;9.180;2023-12-14T09:29:24;9.70;99.90
423;DHT22;198;48.752;9.180;2023-12-14T09:31:49;9.60;99.90
423;DHT22;198;48.752;9.180;2023-12-14T09:34:15;9.60;99.90
423;DHT22;198;48.752;9.180;2023-12-14T09:36:41;9.60;99.90
423;DHT22;198;48.752;9.180;2023-12-14T09:39:06;9.70;99.90
423;DHT22;198;48.752;9.180;2023-12-14T09:41:36;9.70;99.90
423;DHT22;198;48.752;9.180;2023-12-14T09:44:04;9.80;99.90
423;DHT22;198;48.752;9.180;2023-12-14T09:46:30;9.90;99.90
423;DHT22;198;48.752;9.180;2023-12-14T09:48:57;9.90;99.90
423;DHT22;198;48.752;9.180;2023-12-14T09:51:25;9.90;99.90
423;DHT22;198;48.752;9.180;2023-12-14T09:53:52;10.00;99.90
423;DHT22;198;48.752;9.180;2023-12-14T09:56:24;10.10;99.90
423;DHT22;198;48.752;9.180;2023-12-14T09:58:49;10.10;99.90
423;DHT22;198;48.752;9.180;2023-12-14T10:01:26;10.00;99.90
423;DHT22;198;48.752;9.180;2023-12-14T10:04:09;10.10;99.90
423;DHT22;198;48.752;9.180;2023-12-14T10:06:35;10.40;99.90
423;DHT22;198;48.752;9.180;2023-12-14T10:09:01;10.70;99.90
423;DHT22;198;48.752;9.180;2023-12-14T10:11:26;11.00;99.90
423;DHT22;198;48.752;9.180;2023-12-14T10:13:52;11.20;99.90
423;DHT22;198;48.752;9.180;2023-12-14T10:16:30;11.30;99.90
423;DHT22;198;48.752;9.180;2023-12-14T10:18:57;11.50;99.90
423;DHT22;198;48.752;9.180;2023-12-14T10:21:27;11.80;99.90
423;DHT22;198;48.752;9.180;2023-12-14T10:23:55;12.30;99.90
423;DHT22;198;48.752;9.180;2023-12-14T10:26:25;12.60;99.90
423;DHT22;198;48.752;9.180;2023-12-14T10:28:54;12.60;99.90
423;DHT22;198;48.752;9.180;2023-12-14T10:31:20;12.40;99.90
423;DHT22;198;48.752;9.180;2023-12-14T10:33:47;12.20;99.90
423;DHT22;198;48.752;9.180;2023-12-14T10:36:24;12.00;99.90
423;DHT22;198;48.752;9.180;2023-12-14T10:38:53;12.10;99.90
423;DHT22;198;48.752;9.180;2023-12-14T10:41:20;12.30;99.90
423;DHT22;198;48.752;9.180;2023-12-14T10:43:48;12.70;99.90
423;DHT22;198;48.752;9.180;2023-12-14T10:46:14;13.10;99.90
423;DHT22;198;48.752;9.180;2023-12-14T10:48:40;13.40;99.90
423;DHT22;198;48.752;9.180;2023-12-14T10:51:08;13.80;99.90
423;DHT22;198;48.752;9.180;2023-12-14T10:53:35;13.90;99.90
423;DHT22;198;48.752;9.180;2023-12-14T10:56:03;13.90;99.90
423;DHT22;198;48.752;9.180;2023-12-14T10:58:53;13.80;99.90
423;DHT22;198;48.752;9.180;2023-12-14T11:01:20;13.70;99.90
423;DHT22;198;48.752;9.180;2023-12-14T11:03:47;13.60;99.90
423;DHT22;198;48.752;9.180;2023-12-14T11:08:56;13.40;99.90
423;DHT22;198;48.752;9.180;2023-12-14T11:11:21;13.50;99.90
423;DHT22;198;48.752;9.180;2023-12-14T11:13:51;13.70;99.90
423;DHT22;198;48.752;9.180;2023-12-14T11:16:20;14.00;99.90
423;DHT22;198;48.752;9.180;2023-12-14T11:18:46;14.40;99.90
423;DHT22;198;48.752;9.180;2023-12-14T11:21:18;14.70;99.90
423;DHT22;198;48.752;9.180;2023-12-14T11:23:45;15.80;99.90
423;DHT22;198;48.752;9.180;2023-12-14T11:26:11;16.50;96.10
423;DHT22;198;48.752;9.180;2023-12-14T11:28:38;16.10;94.20
423;DHT22;198;48.752;9.180;2023-12-14T11:31:04;15.50;94.70
423;DHT22;198;48.752;9.180;2023-12-14T11:33:35;15.00;95.60
423;DHT22;198;48.752;9.180;2023-12-14T11:36:02;14.60;96.00
423;DHT22;198;48.752;9.180;2023-12-14T11:38:31;14.30;96.10
423;DHT22;198;48.752;9.180;2023-12-14T11:40:58;13.90;98.40
423;DHT22;198;48.752;9.180;2023-12-14T11:43:24;13.70;99.20
423;DHT22;198;48.752;9.180;2023-12-14T11:45:52;13.40;99.80
423;DHT22;198;48.752;9.180;2023-12-14T11:48:18;13.20;99.90
423;DHT22;198;48.752;9.180;2023-12-14T11:50:45;13.10;99.90
423;DHT22;198;48.752;9.180;2023-12-14T11:53:11;12.90;99.90
423;DHT22;198;48.752;9.180;2023-12-14T11:55:39;12.80;99.90
423;DHT22;198;48.752;9.180;2023-12-14T11:58:06;12.60;99.90
423;DHT22;198;48.752;9.180;2023-12-14T12:00:32;12.30;99.90
423;DHT22;198;48.752;9.180;2023-12-14T12:03:16;12.10;99.90
423;DHT22;198;48.752;9.180;2023-12-14T12:05:47;11.90;99.90
423;DHT22;198;48.752;9.180;2023-12-14T12:08:14;11.80;99.90
423;DHT22;198;48.752;9.180;2023-12-14T12:10:41;11.70;99.90
423;DHT22;198;48.752;9.180;2023-12-14T12:13:11;11.60;99.90
423;DHT22;198;48.752;9.180;2023-12-14T12:15:37;11.60;99.90
423;DHT22;198;48.752;9.180;2023-12-14T12:18:07;11.70;99.90
423;DHT22;198;48.752;9.180;2023-12-14T12:20:33;11.90;99.90
423;DHT22;198;48.752;9.180;2023-12-14T12:22:59;12.00;99.90
423;DHT22;198;48.752;9.180;2023-12-14T12:25:25;12.00;99.90
423;DHT22;198;48.752;9.180;2023-12-14T12:27:52;11.90;99.90
423;DHT22;198;48.752;9.180;2023-12-14T12:30:17;11.70;99.90
423;DHT22;198;48.752;9.180;2023-12-14T12:32:43;11.50;99.90
423;DHT22;198;48.752;9.180;2023-12-14T12:35:09;11.30;99.90
423;DHT22;198;48.752;9.180;2023-12-14T12:37:34;11.10;99.90
423;DHT22;198;48.752;9.180;2023-12-14T12:40:00;11.00;99.90
423;DHT22;198;48.752;9.180;2023-12-14T12:42:25;10.80;99.90
423;DHT22;198;48.752;9.180;2023-12-14T12:44:51;10.60;99.90
423;DHT22;198;48.752;9.180;2023-12-14T12:47:17;10.50;99.90
423;DHT22;198;48.752;9.180;2023-12-14T12:49:43;10.40;99.90
423;DHT22;198;48.752;9.180;2023-12-14T12:52:09;10.40;99.90
423;DHT22;198;48.752;9.180;2023-12-14T12:54:34;10.20;99.90
423;DHT22;198;48.752;9.180;2023-12-14T12:57:00;10.10;99.90
423;DHT22;198;48.752;9.180;2023-12-14T12:59:26;9.90;99.90
423;DHT22;198;48.752;9.180;2023-12-14T13:01:51;9.80;99.90
423;DHT22;198;48.752;9.180;2023-12-14T13:04:21;9.60;99.90
423;DHT22;198;48.752;9.180;2023-12-14T13:06:47;9.60;99.90
423;DHT22;198;48.752;9.180;2023-12-14T13:09:16;9.60;99.90
423;DHT22;198;48.752;9.180;2023-12-14T13:11:46;9.70;99.90
423;DHT22;198;48.752;9.180;2023-12-14T13:14:11;9.70;99.90
423;DHT22;198;48.752;9.180;2023-12-14T13:16:38;9.70;99.90
423;DHT22;198;48.752;9.180;2023-12-14T13:19:04;9.60;99.90
423;DHT22;198;48.752;9.180;2023-12-14T13:21:31;9.50;99.90
423;DHT22;198;48.752;9.180;2023-12-14T13:23:59;9.40;99.90
423;DHT22;198;48.752;9.180;2023-12-14T13:26:25;9.30;99.90
423;DHT22;198;48.752;9.180;2023-12-14T13:28:53;9.10;99.90
423;DHT22;198;48.752;9.180;2023-12-14T13:31:19;9.10;99.90
423;DHT22;198;48.752;9.180;2023-12-14T13:33:48;9.10;99.90
423;DHT22;198;48.752;9.180;2023-12-14T13:36:15;9.20;99.90
423;DHT22;198;48.752;9.180;2023-12-14T13:38:42;9.20;99.90
423;DHT22;198;48.752;9.180;2023-12-14T13:41:08;9.20;99.90
423;DHT22;198;48.752;9.180;2023-12-14T13:43:33;9.20;99.90
423;DHT22;198;48.752;9.180;2023-12-14T13:45:59;9.10;99.90
423;DHT22;198;48.752;9.180;2023-12-14T13:48:28;9.10;99.90
423;DHT22;198;48.752;9.180;2023-12-14T13:50:54;9.00;99.90
423;DHT22;198;48.752;9.180;2023-12-14T13:53:20;9.00;99.90
423;DHT22;198;48.752;9.180;2023-12-14T13:55:46;9.00;99.90
423;DHT22;198;48.752;9.180;2023-12-14T13:58:12;9.00;99.90
423;DHT22;198;48.752;9.180;2023-12-14T14:00:38;9.00;99.90
423;DHT22;198;48.752;9.180;2023-12-14T14:03:04;9.00;99.90
423;DHT22;198;48.752;9.180;2023-12-14T14:05:30;9.00;99.90
423;DHT22;198;48.752;9.180;2023-12-14T14:07:56;9.00;99.90
423;DHT22;198;48.752;9.180;2023-12-14T14:10:22;9.10;99.90
423;DHT22;198;48.752;9.180;2023-12-14T14:12:48;9.10;99.90
423;DHT22;198;48.752;9.180;2023-12-14T14:15:14;9.10;99.90
423;DHT22;198;48.752;9.180;2023-12-14T14:17:39;9.10;99.90
423;DHT22;198;48.752;9.180;2023-12-14T14:20:05;9.10;99.90
423;DHT22;198;48.752;9.180;2023-12-14T14:22:32;9.00;99.90
423;DHT22;198;48.752;9.180;2023-12-14T14:24:58;9.00;99.90
423;DHT22;198;48.752;9.180;2023-12-14T14:27:24;8.90;99.90
423;DHT22;198;48.752;9.180;2023-12-14T14:29:49;8.80;99.90
423;DHT22;198;48.752;9.180;2023-12-14T14:32:15;8.80;99.90
423;DHT22;198;48.752;9.180;2023-12-14T14:34:42;8.80;99.90
423;DHT22;198;48.752;9.180;2023-12-14T14:37:08;8.80;99.90
423;DHT22;198;48.752;9.180;2023-12-14T14:39:33;8.80;99.90
423;DHT22;198;48.752;9.180;2023-12-14T14:41:59;8.80;99.90
423;DHT22;198;48.752;9.180;2023-12-14T14:44:25;8.70;99.90
423;DHT22;198;48.752;9.180;2023-12-14T14:46:51;8.80;99.90
423;DHT22;198;48.752;9.180;2023-12-14T14:49:17;8.80;99.90
423;DHT22;198;48.752;9.180;2023-12-14T14:51:43;8.70;99.90
423;DHT22;198;48.752;9.180;2023-12-14T14:54:08;8.70;99.90
423;DHT22;198;48.752;9.180;2023-12-14T14:56:33;8.60;99.90
423;DHT22;198;48.752;9.180;2023-12-14T14:58:59;8.60;99.90
423;DHT22;198;48.752;9.180;2023-12-14T15:01:25;8.60;99.90
423;DHT22;198;48.752;9.180;2023-12-14T15:03:50;8.60;99.90
423;DHT22;198;48.752;9.180;2023-12-14T15:06:15;8.50;99.90
423;DHT22;198;48.752;9.180;2023-12-14T15:08:41;8.50;99.90
423;DHT22;198;48.752;9.180;2023-12-14T15:11:07;8.50;99.90
423;DHT22;198;48.752;9.180;2023-12-14T15:13:35;8.60;99.90
423;DHT22;198;48.752;9.180;2023-12-14T15:16:00;8.60;99.90
423;DHT22;198;48.752;9.180;2023-12-14T15:18:26;8.60;99.90
423;DHT22;198;48.752;9.180;2023-12-14T15:20:51;8.60;99.90
423;DHT22;198;48.752;9.180;2023-12-14T15:23:18;8.60;99.90
423;DHT22;198;48.752;9.180;2023-12-14T15:25:44;8.50;99.90
423;DHT22;198;48.752;9.180;2023-12-14T15:28:10;8.50;99.90
423;DHT22;198;48.752;9.180;2023-12-14T15:30:35;8.50;99.90
423;DHT22;198;48.752;9.180;2023-12-14T15:33:01;8.50;99.90
423;DHT22;198;48.752;9.180;2023-12-14T15:35:26;8.50;99.90
423;DHT22;198;48.752;9.180;2023-12-14T15:37:52;8.60;99.90
423;DHT22;198;48.752;9.180;2023-12-14T15:40:17;8.60;99.90
423;DHT22;198;48.752;9.180;2023-12-14T15:42:44;8.50;99.90
423;DHT22;198;48.752;9.180;2023-12-14T15:45:09;8.50;99.90
423;DHT22;198;48.752;9.180;2023-12-14T15:47:35;8.50;99.90
423;DHT22;198;48.752;9.180;2023-12-14T15:50:00;8.40;99.90
423;DHT22;198;48.752;9.180;2023-12-14T15:52:26;8.50;99.90
423;DHT22;198;48.752;9.180;2023-12-14T15:54:52;8.40;99.90
423;DHT22;198;48.752;9.180;2023-12-14T15:57:18;8.40;99.90
423;DHT22;198;48.752;9.180;2023-12-14T15:59:43;8.40;99.90
423;DHT22;198;48.752;9.180;2023-12-14T16:02:09;8.40;99.90
423;DHT22;198;48.752;9.180;2023-12-14T16:04:36;8.40;99.90
423;DHT22;198;48.752;9.180;2023-12-14T16:07:01;8.40;99.90
423;DHT22;198;48.752;9.180;2023-12-14T16:09:27;8.40;99.90
423;DHT22;198;48.752;9.180;2023-12-14T16:11:53;8.30;99.90
423;DHT22;198;48.752;9.180;2023-12-14T16:14:18;8.20;99.90
423;DHT22;198;48.752;9.180;2023-12-14T16:16:44;8.20;99.90
423;DHT22;198;48.752;9.180;2023-12-14T16:19:09;8.20;99.90
423;DHT22;198;48.752;9.180;2023-12-14T16:21:35;8.20;99.90
423;DHT22;198;48.752;9.180;2023-12-14T16:24:03;8.10;99.90
423;DHT22;198;48.752;9.180;2023-12-14T16:26:29;8.00;99.90
423;DHT22;198;48.752;9.180;2023-12-14T16:28:55;8.00;99.90
423;DHT22;198;48.752;9.180;2023-12-14T16:31:21;7.90;99.90
423;DHT22;198;48.752;9.180;2023-12-14T16:33:47;7.90;99.90
423;DHT22;198;48.752;9.180;2023-12-14T16:36:13;7.90;99.90
423;DHT22;198;48.752;9.180;2023-12-14T16:38:40;7.90;99.90
423;DHT22;198;48.752;9.180;2023-12-14T16:41:05;7.90;99.90
423;DHT22;198;48.752;9.180;2023-12-14T16:43:31;7.90;99.90
423;DHT22;198;48.752;9.180;2023-12-14T16:45:58;8.00;99.90